sensor_id;sensor_type;location;lat;lon;timestamp;P1;durP1;ratioP1;P2;durP2;ratioP2
53391;SDS011;41667;51.922;8.850;2023-02-28T00:00:29;14.20;;;4.90;;
53391;SDS011;41667;51.922;8.850;2023-02-28T00:02:54;9.13;;;4.30;;
53391;SDS011;41667;51.922;8.850;2023-02-28T00:05:20;13.00;;;5.97;;
53391;SDS011;41667;51.922;8.850;2023-02-28T00:07:46;5.53;;;3.92;;
53391;SDS011;41667;51.922;8.850;2023-02-28T00:10:13;6.85;;;4.35;;
53391;SDS011;41667;51.922;8.850;2023-02-28T00:12:38;7.40;;;4.13;;
53391;SDS011;41667;51.922;8.850;2023-02-28T00:15:08;7.47;;;3.67;;
53391;SDS011;41667;51.922;8.850;2023-02-28T00:17:34;5.68;;;3.70;;
53391;SDS011;41667;51.922;8.850;2023-02-28T00:19:59;7.72;;;3.75;;
53391;SDS011;41667;51.922;8.850;2023-02-28T00:22:28;6.63;;;3.75;;
53391;SDS011;41667;51.922;8.850;2023-02-28T00:24:53;4.97;;;3.57;;
53391;SDS011;41667;51.922;8.850;2023-02-28T00:27:18;7.28;;;3.88;;
53391;SDS011;41667;51.922;8.850;2023-02-28T00:29:43;8.40;;;3.37;;
53391;SDS011;41667;51.922;8.850;2023-02-28T00:32:10;5.32;;;3.40;;
53391;SDS011;41667;51.922;8.850;2023-02-28T00:34:36;9.75;;;3.90;;
53391;SDS011;41667;51.922;8.850;2023-02-28T00:37:03;8.82;;;3.38;;
53391;SDS011;41667;51.922;8.850;2023-02-28T00:39:28;8.63;;;3.65;;
53391;SDS011;41667;51.922;8.850;2023-02-28T00:41:53;8.45;;;3.85;;
53391;SDS011;41667;51.922;8.850;2023-02-28T00:44:18;7.57;;;3.50;;
53391;SDS011;41667;51.922;8.850;2023-02-28T00:46:46;5.57;;;3.10;;
53391;SDS011;41667;51.922;8.850;2023-02-28T00:49:11;4.15;;;3.05;;
53391;SDS011;41667;51.922;8.850;2023-02-28T00:51:36;3.13;;;2.55;;
53391;SDS011;41667;51.922;8.850;2023-02-28T00:54:01;5.10;;;3.58;;
53391;SDS011;41667;51.922;8.850;2023-02-28T00:56:26;5.43;;;2.87;;
53391;SDS011;41667;51.922;8.850;2023-02-28T00:58:52;5.40;;;2.78;;
53391;SDS011;41667;51.922;8.850;2023-02-28T01:01:17;9.27;;;3.75;;
53391;SDS011;41667;51.922;8.850;2023-02-28T01:03:42;7.53;;;3.33;;
53391;SDS011;41667;51.922;8.850;2023-02-28T01:06:07;2.67;;;2.10;;
53391;SDS011;41667;51.922;8.850;2023-02-28T01:08:32;2.75;;;2.42;;
53391;SDS011;41667;51.922;8.850;2023-02-28T01:10:57;9.23;;;3.08;;
53391;SDS011;41667;51.922;8.850;2023-02-28T01:13:22;4.45;;;2.40;;
53391;SDS011;41667;51.922;8.850;2023-02-28T01:15:51;5.93;;;2.80;;
53391;SDS011;41667;51.922;8.850;2023-02-28T01:18:17;3.67;;;2.85;;
53391;SDS011;41667;51.922;8.850;2023-02-28T01:20:43;3.33;;;2.60;;
53391;SDS011;41667;51.922;8.850;2023-02-28T01:23:08;6.00;;;3.13;;
53391;SDS011;41667;51.922;8.850;2023-02-28T01:25:36;2.75;;;2.30;;
53391;SDS011;41667;51.922;8.850;2023-02-28T01:28:01;2.33;;;1.98;;
53391;SDS011;41667;51.922;8.850;2023-02-28T01:30:26;4.97;;;1.92;;
53391;SDS011;41667;51.922;8.850;2023-02-28T01:32:51;1.97;;;1.87;;
53391;SDS011;41667;51.922;8.850;2023-02-28T01:35:18;3.28;;;2.10;;
53391;SDS011;41667;51.922;8.850;2023-02-28T01:37:43;4.38;;;1.60;;
53391;SDS011;41667;51.922;8.850;2023-02-28T01:40:08;1.88;;;1.70;;
53391;SDS011;41667;51.922;8.850;2023-02-28T01:42:33;1.83;;;1.67;;
53391;SDS011;41667;51.922;8.850;2023-02-28T01:47:42;3.13;;;2.25;;
53391;SDS011;41667;51.922;8.850;2023-02-28T01:50:18;4.40;;;2.13;;
53391;SDS011;41667;51.922;8.850;2023-02-28T01:52:44;2.15;;;2.05;;
53391;SDS011;41667;51.922;8.850;2023-02-28T01:55:10;2.22;;;1.40;;
53391;SDS011;41667;51.922;8.850;2023-02-28T01:57:38;4.97;;;3.10;;
53391;SDS011;41667;51.922;8.850;2023-02-28T02:00:05;2.75;;;1.75;;
53391;SDS011;41667;51.922;8.850;2023-02-28T02:02:32;2.83;;;1.65;;
53391;SDS011;41667;51.922;8.850;2023-02-28T02:05:04;2.65;;;1.40;;
53391;SDS011;41667;51.922;8.850;2023-02-28T02:07:30;1.75;;;1.40;;
53391;SDS011;41667;51.922;8.850;2023-02-28T02:09:59;3.08;;;2.08;;
53391;SDS011;41667;51.922;8.850;2023-02-28T02:12:27;2.33;;;2.13;;
53391;SDS011;41667;51.922;8.850;2023-02-28T02:17:31;2.50;;;1.88;;
53391;SDS011;41667;51.922;8.850;2023-02-28T02:28:05;5.18;;;2.45;;
53391;SDS011;41667;51.922;8.850;2023-02-28T02:35:35;1.83;;;1.67;;
53391;SDS011;41667;51.922;8.850;2023-02-28T02:38:09;3.05;;;1.73;;
53391;SDS011;41667;51.922;8.850;2023-02-28T02:40:38;2.20;;;1.65;;
53391;SDS011;41667;51.922;8.850;2023-02-28T02:43:08;4.70;;;2.00;;
53391;SDS011;41667;51.922;8.850;2023-02-28T02:45:46;1.60;;;1.52;;
53391;SDS011;41667;51.922;8.850;2023-02-28T02:48:13;1.67;;;1.58;;
53391;SDS011;41667;51.922;8.850;2023-02-28T02:50:41;2.28;;;2.08;;
53391;SDS011;41667;51.922;8.850;2023-02-28T02:53:07;5.57;;;2.05;;
53391;SDS011;41667;51.922;8.850;2023-02-28T02:55:34;4.40;;;2.42;;
53391;SDS011;41667;51.922;8.850;2023-02-28T02:58:03;1.90;;;1.70;;
53391;SDS011;41667;51.922;8.850;2023-02-28T03:00:31;2.60;;;1.88;;
53391;SDS011;41667;51.922;8.850;2023-02-28T03:02:57;1.83;;;1.73;;
53391;SDS011;41667;51.922;8.850;2023-02-28T03:05:23;4.20;;;1.83;;
53391;SDS011;41667;51.922;8.850;2023-02-28T03:07:50;1.65;;;1.55;;
53391;SDS011;41667;51.922;8.850;2023-02-28T03:15:37;1.43;;;1.43;;
53391;SDS011;41667;51.922;8.850;2023-02-28T03:20:34;2.25;;;2.03;;
53391;SDS011;41667;51.922;8.850;2023-02-28T03:25:37;2.10;;;1.85;;
53391;SDS011;41667;51.922;8.850;2023-02-28T03:30:52;1.80;;;1.70;;
53391;SDS011;41667;51.922;8.850;2023-02-28T03:33:20;1.52;;;1.48;;
53391;SDS011;41667;51.922;8.850;2023-02-28T03:35:58;1.80;;;1.70;;
53391;SDS011;41667;51.922;8.850;2023-02-28T03:41:04;3.90;;;1.92;;
53391;SDS011;41667;51.922;8.850;2023-02-28T03:43:31;1.42;;;1.40;;
53391;SDS011;41667;51.922;8.850;2023-02-28T03:45:58;1.00;;;1.00;;
53391;SDS011;41667;51.922;8.850;2023-02-28T03:48:28;1.40;;;1.30;;
53391;SDS011;41667;51.922;8.850;2023-02-28T03:50:55;1.67;;;1.65;;
53391;SDS011;41667;51.922;8.850;2023-02-28T03:58:24;1.35;;;1.27;;
53391;SDS011;41667;51.922;8.850;2023-02-28T04:00:55;2.33;;;1.60;;
53391;SDS011;41667;51.922;8.850;2023-02-28T04:03:22;1.45;;;1.20;;
53391;SDS011;41667;51.922;8.850;2023-02-28T04:05:52;1.77;;;1.70;;
53391;SDS011;41667;51.922;8.850;2023-02-28T04:08:18;1.70;;;1.60;;
53391;SDS011;41667;51.922;8.850;2023-02-28T04:10:43;1.60;;;1.50;;
53391;SDS011;41667;51.922;8.850;2023-02-28T04:13:10;2.10;;;1.50;;
53391;SDS011;41667;51.922;8.850;2023-02-28T04:15:35;2.22;;;1.80;;
53391;SDS011;41667;51.922;8.850;2023-02-28T04:18:01;2.05;;;1.80;;
53391;SDS011;41667;51.922;8.850;2023-02-28T04:20:27;1.60;;;1.50;;
53391;SDS011;41667;51.922;8.850;2023-02-28T04:22:52;2.77;;;1.60;;
53391;SDS011;41667;51.922;8.850;2023-02-28T04:25:17;2.33;;;1.75;;
53391;SDS011;41667;51.922;8.850;2023-02-28T04:27:42;1.52;;;1.40;;
53391;SDS011;41667;51.922;8.850;2023-02-28T04:30:09;1.92;;;1.83;;
53391;SDS011;41667;51.922;8.850;2023-02-28T04:32:34;2.13;;;1.98;;
53391;SDS011;41667;51.922;8.850;2023-02-28T04:35:00;1.27;;;1.27;;
53391;SDS011;41667;51.922;8.850;2023-02-28T04:37:25;1.95;;;1.80;;
53391;SDS011;41667;51.922;8.850;2023-02-28T04:39:53;2.25;;;1.85;;
53391;SDS011;41667;51.922;8.850;2023-02-28T04:42:19;1.73;;;1.63;;
53391;SDS011;41667;51.922;8.850;2023-02-28T04:44:44;1.40;;;1.40;;
53391;SDS011;41667;51.922;8.850;2023-02-28T04:47:09;2.90;;;1.67;;
53391;SDS011;41667;51.922;8.850;2023-02-28T04:49:34;1.73;;;1.63;;
53391;SDS011;41667;51.922;8.850;2023-02-28T04:51:59;1.70;;;1.60;;
53391;SDS011;41667;51.922;8.850;2023-02-28T04:54:24;2.00;;;1.90;;
53391;SDS011;41667;51.922;8.850;2023-02-28T04:56:50;1.38;;;1.35;;
53391;SDS011;41667;51.922;8.850;2023-02-28T04:59:15;4.28;;;1.83;;
53391;SDS011;41667;51.922;8.850;2023-02-28T05:01:40;1.98;;;1.88;;
53391;SDS011;41667;51.922;8.850;2023-02-28T05:04:05;1.63;;;1.63;;
53391;SDS011;41667;51.922;8.850;2023-02-28T05:06:31;1.95;;;1.65;;
53391;SDS011;41667;51.922;8.850;2023-02-28T05:08:57;1.50;;;1.50;;
53391;SDS011;41667;51.922;8.850;2023-02-28T05:11:24;1.90;;;1.70;;
53391;SDS011;41667;51.922;8.850;2023-02-28T05:13:49;1.50;;;1.40;;
53391;SDS011;41667;51.922;8.850;2023-02-28T05:16:15;1.75;;;1.60;;
53391;SDS011;41667;51.922;8.850;2023-02-28T05:18:41;2.00;;;1.90;;
53391;SDS011;41667;51.922;8.850;2023-02-28T05:21:06;1.90;;;1.80;;
53391;SDS011;41667;51.922;8.850;2023-02-28T05:23:48;1.70;;;1.60;;
53391;SDS011;41667;51.922;8.850;2023-02-28T05:26:13;1.80;;;1.70;;
53391;SDS011;41667;51.922;8.850;2023-02-28T05:28:38;2.17;;;2.08;;
53391;SDS011;41667;51.922;8.850;2023-02-28T05:31:05;1.83;;;1.73;;
53391;SDS011;41667;51.922;8.850;2023-02-28T05:33:30;5.50;;;2.08;;
53391;SDS011;41667;51.922;8.850;2023-02-28T05:35:55;1.90;;;1.80;;
53391;SDS011;41667;51.922;8.850;2023-02-28T05:38:20;4.68;;;1.90;;
53391;SDS011;41667;51.922;8.850;2023-02-28T05:40:45;1.90;;;1.80;;
53391;SDS011;41667;51.922;8.850;2023-02-28T05:43:10;1.93;;;1.83;;
53391;SDS011;41667;51.922;8.850;2023-02-28T05:45:36;12.00;;;1.90;;
53391;SDS011;41667;51.922;8.850;2023-02-28T05:48:01;3.50;;;2.15;;
53391;SDS011;41667;51.922;8.850;2023-02-28T05:50:27;6.00;;;2.10;;
53391;SDS011;41667;51.922;8.850;2023-02-28T05:52:52;1.70;;;1.60;;
53391;SDS011;41667;51.922;8.850;2023-02-28T05:55:17;2.47;;;2.28;;
53391;SDS011;41667;51.922;8.850;2023-02-28T05:57:43;2.75;;;2.30;;
53391;SDS011;41667;51.922;8.850;2023-02-28T06:00:08;4.80;;;2.60;;
53391;SDS011;41667;51.922;8.850;2023-02-28T06:02:34;2.35;;;2.20;;
53391;SDS011;41667;51.922;8.850;2023-02-28T06:04:59;3.80;;;3.13;;
53391;SDS011;41667;51.922;8.850;2023-02-28T06:07:24;4.03;;;3.17;;
53391;SDS011;41667;51.922;8.850;2023-02-28T06:09:49;2.75;;;2.55;;
53391;SDS011;41667;51.922;8.850;2023-02-28T06:12:14;2.67;;;2.47;;
53391;SDS011;41667;51.922;8.850;2023-02-28T06:14:39;4.80;;;3.13;;
53391;SDS011;41667;51.922;8.850;2023-02-28T06:17:06;3.47;;;3.28;;
53391;SDS011;41667;51.922;8.850;2023-02-28T06:19:31;2.63;;;2.42;;
53391;SDS011;41667;51.922;8.850;2023-02-28T06:21:56;4.57;;;2.85;;
53391;SDS011;41667;51.922;8.850;2023-02-28T06:24:22;3.22;;;2.08;;
53391;SDS011;41667;51.922;8.850;2023-02-28T06:26:48;4.25;;;3.45;;
53391;SDS011;41667;51.922;8.850;2023-02-28T06:29:14;6.82;;;2.92;;
53391;SDS011;41667;51.922;8.850;2023-02-28T06:31:41;3.90;;;2.58;;
53391;SDS011;41667;51.922;8.850;2023-02-28T06:34:06;3.08;;;2.85;;
53391;SDS011;41667;51.922;8.850;2023-02-28T06:36:32;2.65;;;2.42;;
53391;SDS011;41667;51.922;8.850;2023-02-28T06:38:57;3.67;;;3.38;;
53391;SDS011;41667;51.922;8.850;2023-02-28T06:41:23;2.58;;;2.25;;
53391;SDS011;41667;51.922;8.850;2023-02-28T06:43:49;3.53;;;3.25;;
53391;SDS011;41667;51.922;8.850;2023-02-28T06:46:14;3.55;;;3.03;;
53391;SDS011;41667;51.922;8.850;2023-02-28T06:48:40;8.80;;;3.58;;
53391;SDS011;41667;51.922;8.850;2023-02-28T06:51:07;6.10;;;3.83;;
53391;SDS011;41667;51.922;8.850;2023-02-28T06:53:32;8.07;;;4.25;;
53391;SDS011;41667;51.922;8.850;2023-02-28T06:55:57;7.70;;;4.97;;
53391;SDS011;41667;51.922;8.850;2023-02-28T06:58:22;18.33;;;8.37;;
53391;SDS011;41667;51.922;8.850;2023-02-28T07:00:50;10.45;;;5.80;;
53391;SDS011;41667;51.922;8.850;2023-02-28T07:03:15;10.43;;;7.43;;
53391;SDS011;41667;51.922;8.850;2023-02-28T07:05:42;13.52;;;6.57;;
53391;SDS011;41667;51.922;8.850;2023-02-28T07:08:07;10.70;;;6.50;;
53391;SDS011;41667;51.922;8.850;2023-02-28T07:10:33;8.95;;;4.63;;
53391;SDS011;41667;51.922;8.850;2023-02-28T07:12:58;5.70;;;4.30;;
53391;SDS011;41667;51.922;8.850;2023-02-28T07:15:23;7.32;;;4.63;;
53391;SDS011;41667;51.922;8.850;2023-02-28T07:17:49;5.17;;;3.97;;
53391;SDS011;41667;51.922;8.850;2023-02-28T07:20:14;5.32;;;4.25;;
53391;SDS011;41667;51.922;8.850;2023-02-28T07:22:39;5.78;;;3.65;;
53391;SDS011;41667;51.922;8.850;2023-02-28T07:25:05;8.32;;;4.30;;
53391;SDS011;41667;51.922;8.850;2023-02-28T07:27:30;9.90;;;4.63;;
53391;SDS011;41667;51.922;8.850;2023-02-28T07:29:55;11.75;;;6.03;;
53391;SDS011;41667;51.922;8.850;2023-02-28T07:32:21;7.82;;;4.47;;
53391;SDS011;41667;51.922;8.850;2023-02-28T07:34:46;6.32;;;4.45;;
53391;SDS011;41667;51.922;8.850;2023-02-28T07:37:11;8.05;;;4.35;;
53391;SDS011;41667;51.922;8.850;2023-02-28T07:39:37;13.38;;;4.95;;
53391;SDS011;41667;51.922;8.850;2023-02-28T07:42:05;12.63;;;7.03;;
53391;SDS011;41667;51.922;8.850;2023-02-28T07:44:31;9.55;;;5.85;;
53391;SDS011;41667;51.922;8.850;2023-02-28T07:46:56;10.77;;;6.17;;
53391;SDS011;41667;51.922;8.850;2023-02-28T07:49:21;9.45;;;5.10;;
53391;SDS011;41667;51.922;8.850;2023-02-28T07:51:46;6.65;;;3.60;;
53391;SDS011;41667;51.922;8.850;2023-02-28T07:54:11;6.25;;;4.03;;
53391;SDS011;41667;51.922;8.850;2023-02-28T07:56:36;7.25;;;4.18;;
53391;SDS011;41667;51.922;8.850;2023-02-28T07:59:02;4.07;;;3.25;;
53391;SDS011;41667;51.922;8.850;2023-02-28T08:01:27;7.25;;;3.67;;
53391;SDS011;41667;51.922;8.850;2023-02-28T08:03:52;6.50;;;3.42;;
53391;SDS011;41667;51.922;8.850;2023-02-28T08:06:21;4.78;;;3.53;;
53391;SDS011;41667;51.922;8.850;2023-02-28T08:08:46;4.95;;;2.95;;
53391;SDS011;41667;51.922;8.850;2023-02-28T08:11:12;8.57;;;4.03;;
53391;SDS011;41667;51.922;8.850;2023-02-28T08:13:37;6.47;;;3.55;;
53391;SDS011;41667;51.922;8.850;2023-02-28T08:16:02;6.68;;;3.17;;
53391;SDS011;41667;51.922;8.850;2023-02-28T08:18:27;5.65;;;3.00;;
53391;SDS011;41667;51.922;8.850;2023-02-28T08:20:53;5.63;;;3.60;;
53391;SDS011;41667;51.922;8.850;2023-02-28T08:23:18;4.70;;;2.85;;
53391;SDS011;41667;51.922;8.850;2023-02-28T08:25:44;4.85;;;3.00;;
53391;SDS011;41667;51.922;8.850;2023-02-28T08:28:09;2.88;;;2.65;;
53391;SDS011;41667;51.922;8.850;2023-02-28T08:30:34;5.35;;;3.30;;
53391;SDS011;41667;51.922;8.850;2023-02-28T08:32:59;6.47;;;2.90;;
53391;SDS011;41667;51.922;8.850;2023-02-28T08:35:26;5.72;;;3.33;;
53391;SDS011;41667;51.922;8.850;2023-02-28T08:37:51;4.17;;;3.20;;
53391;SDS011;41667;51.922;8.850;2023-02-28T08:40:16;4.63;;;3.17;;
53391;SDS011;41667;51.922;8.850;2023-02-28T08:42:47;5.97;;;4.22;;
53391;SDS011;41667;51.922;8.850;2023-02-28T08:45:12;4.57;;;4.03;;
53391;SDS011;41667;51.922;8.850;2023-02-28T08:47:38;9.15;;;5.00;;
53391;SDS011;41667;51.922;8.850;2023-02-28T08:50:04;8.68;;;5.05;;
53391;SDS011;41667;51.922;8.850;2023-02-28T08:52:29;4.93;;;3.75;;
53391;SDS011;41667;51.922;8.850;2023-02-28T08:54:54;4.05;;;3.60;;
53391;SDS011;41667;51.922;8.850;2023-02-28T08:57:19;4.43;;;3.85;;
53391;SDS011;41667;51.922;8.850;2023-02-28T08:59:44;4.93;;;3.53;;
53391;SDS011;41667;51.922;8.850;2023-02-28T09:02:12;8.57;;;3.60;;
53391;SDS011;41667;51.922;8.850;2023-02-28T09:04:37;8.65;;;3.65;;
53391;SDS011;41667;51.922;8.850;2023-02-28T09:07:02;2.83;;;2.58;;
53391;SDS011;41667;51.922;8.850;2023-02-28T09:09:27;6.20;;;3.03;;
53391;SDS011;41667;51.922;8.850;2023-02-28T09:11:54;10.40;;;3.05;;
53391;SDS011;41667;51.922;8.850;2023-02-28T09:14:20;3.70;;;3.15;;
53391;SDS011;41667;51.922;8.850;2023-02-28T09:16:45;5.00;;;3.10;;
53391;SDS011;41667;51.922;8.850;2023-02-28T09:19:11;2.87;;;2.60;;
53391;SDS011;41667;51.922;8.850;2023-02-28T09:21:36;6.13;;;3.08;;
53391;SDS011;41667;51.922;8.850;2023-02-28T09:24:02;6.35;;;2.92;;
53391;SDS011;41667;51.922;8.850;2023-02-28T09:26:27;6.63;;;3.47;;
53391;SDS011;41667;51.922;8.850;2023-02-28T09:28:52;5.28;;;3.78;;
53391;SDS011;41667;51.922;8.850;2023-02-28T09:31:22;3.33;;;2.85;;
53391;SDS011;41667;51.922;8.850;2023-02-28T09:33:48;4.32;;;3.25;;
53391;SDS011;41667;51.922;8.850;2023-02-28T09:36:14;3.67;;;2.88;;
53391;SDS011;41667;51.922;8.850;2023-02-28T09:38:39;3.47;;;2.83;;
53391;SDS011;41667;51.922;8.850;2023-02-28T09:41:10;3.47;;;3.15;;
53391;SDS011;41667;51.922;8.850;2023-02-28T09:43:37;4.30;;;3.28;;
53391;SDS011;41667;51.922;8.850;2023-02-28T09:46:08;5.65;;;2.83;;
53391;SDS011;41667;51.922;8.850;2023-02-28T09:48:39;4.60;;;3.35;;
53391;SDS011;41667;51.922;8.850;2023-02-28T09:51:09;4.10;;;2.33;;
53391;SDS011;41667;51.922;8.850;2023-02-28T09:53:35;2.20;;;2.03;;
53391;SDS011;41667;51.922;8.850;2023-02-28T09:56:21;1.85;;;1.75;;
53391;SDS011;41667;51.922;8.850;2023-02-28T10:01:37;2.45;;;2.00;;
53391;SDS011;41667;51.922;8.850;2023-02-28T10:04:08;1.80;;;1.70;;
53391;SDS011;41667;51.922;8.850;2023-02-28T10:06:37;2.17;;;2.00;;
53391;SDS011;41667;51.922;8.850;2023-02-28T10:09:07;6.05;;;2.10;;
53391;SDS011;41667;51.922;8.850;2023-02-28T10:11:38;7.82;;;2.10;;
53391;SDS011;41667;51.922;8.850;2023-02-28T10:14:11;3.58;;;2.40;;
53391;SDS011;41667;51.922;8.850;2023-02-28T10:16:45;1.88;;;1.77;;
53391;SDS011;41667;51.922;8.850;2023-02-28T10:24:04;3.10;;;2.05;;
53391;SDS011;41667;51.922;8.850;2023-02-28T10:26:30;2.00;;;1.90;;
53391;SDS011;41667;51.922;8.850;2023-02-28T10:28:56;1.60;;;1.50;;
53391;SDS011;41667;51.922;8.850;2023-02-28T10:31:21;3.55;;;2.33;;
53391;SDS011;41667;51.922;8.850;2023-02-28T10:33:47;3.15;;;2.00;;
53391;SDS011;41667;51.922;8.850;2023-02-28T10:36:14;7.55;;;2.20;;
53391;SDS011;41667;51.922;8.850;2023-02-28T10:38:39;2.60;;;1.60;;
53391;SDS011;41667;51.922;8.850;2023-02-28T10:43:30;1.75;;;1.60;;
53391;SDS011;41667;51.922;8.850;2023-02-28T10:45:56;3.20;;;1.88;;
53391;SDS011;41667;51.922;8.850;2023-02-28T10:55:55;3.22;;;1.80;;
53391;SDS011;41667;51.922;8.850;2023-02-28T10:58:22;3.92;;;1.85;;
53391;SDS011;41667;51.922;8.850;2023-02-28T11:00:48;2.03;;;1.42;;
53391;SDS011;41667;51.922;8.850;2023-02-28T11:03:23;3.33;;;1.60;;
53391;SDS011;41667;51.922;8.850;2023-02-28T11:05:48;2.67;;;1.23;;
53391;SDS011;41667;51.922;8.850;2023-02-28T11:08:15;1.27;;;1.17;;
53391;SDS011;41667;51.922;8.850;2023-02-28T11:10:44;2.17;;;1.55;;
53391;SDS011;41667;51.922;8.850;2023-02-28T11:13:16;1.23;;;1.23;;
53391;SDS011;41667;51.922;8.850;2023-02-28T11:15:41;2.13;;;1.92;;
53391;SDS011;41667;51.922;8.850;2023-02-28T11:20:37;1.77;;;1.30;;
53391;SDS011;41667;51.922;8.850;2023-02-28T11:23:03;1.35;;;1.25;;
53391;SDS011;41667;51.922;8.850;2023-02-28T11:25:30;4.03;;;1.75;;
53391;SDS011;41667;51.922;8.850;2023-02-28T11:28:00;1.90;;;1.80;;
53391;SDS011;41667;51.922;8.850;2023-02-28T11:30:28;2.13;;;1.98;;
53391;SDS011;41667;51.922;8.850;2023-02-28T11:32:54;1.83;;;1.42;;
53391;SDS011;41667;51.922;8.850;2023-02-28T11:35:30;4.13;;;1.80;;
53391;SDS011;41667;51.922;8.850;2023-02-28T11:37:56;1.90;;;1.30;;
53391;SDS011;41667;51.922;8.850;2023-02-28T11:40:24;1.88;;;1.65;;
53391;SDS011;41667;51.922;8.850;2023-02-28T11:43:16;1.87;;;1.77;;
53391;SDS011;41667;51.922;8.850;2023-02-28T11:45:51;4.38;;;1.98;;
53391;SDS011;41667;51.922;8.850;2023-02-28T11:48:22;1.73;;;1.42;;
53391;SDS011;41667;51.922;8.850;2023-02-28T11:50:58;2.13;;;1.75;;
53391;SDS011;41667;51.922;8.850;2023-02-28T11:56:01;2.05;;;1.83;;
53391;SDS011;41667;51.922;8.850;2023-02-28T11:58:31;2.65;;;1.70;;
53391;SDS011;41667;51.922;8.850;2023-02-28T12:01:04;2.70;;;1.65;;
53391;SDS011;41667;51.922;8.850;2023-02-28T12:06:06;4.03;;;1.70;;
53391;SDS011;41667;51.922;8.850;2023-02-28T12:11:02;1.52;;;1.27;;
53391;SDS011;41667;51.922;8.850;2023-02-28T12:13:43;2.70;;;1.30;;
53391;SDS011;41667;51.922;8.850;2023-02-28T12:16:20;2.17;;;1.00;;
53391;SDS011;41667;51.922;8.850;2023-02-28T12:24:00;1.30;;;1.20;;
53391;SDS011;41667;51.922;8.850;2023-02-28T12:26:32;3.25;;;1.70;;
53391;SDS011;41667;51.922;8.850;2023-02-28T12:29:10;2.40;;;1.80;;
53391;SDS011;41667;51.922;8.850;2023-02-28T12:31:41;4.03;;;1.73;;
53391;SDS011;41667;51.922;8.850;2023-02-28T12:34:12;3.72;;;1.70;;
53391;SDS011;41667;51.922;8.850;2023-02-28T12:36:38;1.95;;;1.85;;
53391;SDS011;41667;51.922;8.850;2023-02-28T12:39:08;2.40;;;1.60;;
53391;SDS011;41667;51.922;8.850;2023-02-28T12:41:41;2.85;;;2.15;;
53391;SDS011;41667;51.922;8.850;2023-02-28T12:46:34;1.30;;;1.30;;
53391;SDS011;41667;51.922;8.850;2023-02-28T12:49:09;1.60;;;1.50;;
53391;SDS011;41667;51.922;8.850;2023-02-28T12:51:35;2.08;;;1.63;;
53391;SDS011;41667;51.922;8.850;2023-02-28T12:54:07;1.80;;;1.70;;
53391;SDS011;41667;51.922;8.850;2023-02-28T12:56:47;2.28;;;1.25;;
53391;SDS011;41667;51.922;8.850;2023-02-28T12:59:15;3.67;;;1.73;;
53391;SDS011;41667;51.922;8.850;2023-02-28T13:07:21;2.08;;;1.90;;
53391;SDS011;41667;51.922;8.850;2023-02-28T13:09:53;3.78;;;1.77;;
53391;SDS011;41667;51.922;8.850;2023-02-28T13:12:19;2.45;;;1.55;;
53391;SDS011;41667;51.922;8.850;2023-02-28T13:14:45;1.73;;;1.58;;
53391;SDS011;41667;51.922;8.850;2023-02-28T13:17:12;5.88;;;1.70;;
53391;SDS011;41667;51.922;8.850;2023-02-28T13:19:39;1.75;;;1.65;;
53391;SDS011;41667;51.922;8.850;2023-02-28T13:22:05;1.70;;;1.60;;
53391;SDS011;41667;51.922;8.850;2023-02-28T13:29:32;1.70;;;1.60;;
53391;SDS011;41667;51.922;8.850;2023-02-28T13:34:27;4.97;;;1.80;;
53391;SDS011;41667;51.922;8.850;2023-02-28T13:37:00;1.60;;;1.50;;
53391;SDS011;41667;51.922;8.850;2023-02-28T13:45:20;1.60;;;1.50;;
53391;SDS011;41667;51.922;8.850;2023-02-28T13:47:39;1.35;;;1.20;;
53391;SDS011;41667;51.922;8.850;2023-02-28T13:55:34;4.10;;;2.50;;
53391;SDS011;41667;51.922;8.850;2023-02-28T13:58:25;1.83;;;1.73;;
53391;SDS011;41667;51.922;8.850;2023-02-28T14:01:02;1.38;;;1.27;;
53391;SDS011;41667;51.922;8.850;2023-02-28T14:08:44;1.48;;;1.38;;
53391;SDS011;41667;51.922;8.850;2023-02-28T14:11:22;2.23;;;1.77;;
53391;SDS011;41667;51.922;8.850;2023-02-28T14:13:48;1.52;;;1.42;;
53391;SDS011;41667;51.922;8.850;2023-02-28T14:16:14;2.22;;;1.80;;
53391;SDS011;41667;51.922;8.850;2023-02-28T14:18:50;1.65;;;1.55;;
53391;SDS011;41667;51.922;8.850;2023-02-28T14:21:20;5.93;;;2.40;;
53391;SDS011;41667;51.922;8.850;2023-02-28T14:23:56;2.03;;;1.75;;
53391;SDS011;41667;51.922;8.850;2023-02-28T14:31:58;4.53;;;1.77;;
53391;SDS011;41667;51.922;8.850;2023-02-28T14:34:31;1.80;;;1.70;;
53391;SDS011;41667;51.922;8.850;2023-02-28T14:37:00;2.63;;;1.92;;
53391;SDS011;41667;51.922;8.850;2023-02-28T14:39:27;3.17;;;2.65;;
53391;SDS011;41667;51.922;8.850;2023-02-28T14:41:52;2.15;;;1.95;;
53391;SDS011;41667;51.922;8.850;2023-02-28T14:44:21;2.00;;;1.80;;
53391;SDS011;41667;51.922;8.850;2023-02-28T14:46:51;1.80;;;1.70;;
53391;SDS011;41667;51.922;8.850;2023-02-28T14:49:28;2.83;;;1.88;;
53391;SDS011;41667;51.922;8.850;2023-02-28T14:52:05;1.90;;;1.80;;
53391;SDS011;41667;51.922;8.850;2023-02-28T14:54:31;2.10;;;2.00;;
53391;SDS011;41667;51.922;8.850;2023-02-28T14:56:56;1.90;;;1.80;;
53391;SDS011;41667;51.922;8.850;2023-02-28T14:59:29;5.38;;;2.30;;
53391;SDS011;41667;51.922;8.850;2023-02-28T15:02:14;2.22;;;2.00;;
53391;SDS011;41667;51.922;8.850;2023-02-28T15:04:39;2.08;;;1.70;;
53391;SDS011;41667;51.922;8.850;2023-02-28T15:07:07;2.13;;;1.92;;
53391;SDS011;41667;51.922;8.850;2023-02-28T15:09:32;2.22;;;2.10;;
53391;SDS011;41667;51.922;8.850;2023-02-28T15:11:57;3.25;;;2.00;;
53391;SDS011;41667;51.922;8.850;2023-02-28T15:14:22;2.63;;;2.22;;
53391;SDS011;41667;51.922;8.850;2023-02-28T15:16:51;4.30;;;2.05;;
53391;SDS011;41667;51.922;8.850;2023-02-28T15:19:21;3.40;;;2.33;;
53391;SDS011;41667;51.922;8.850;2023-02-28T15:21:48;1.80;;;1.70;;
53391;SDS011;41667;51.922;8.850;2023-02-28T15:24:16;2.30;;;1.70;;
53391;SDS011;41667;51.922;8.850;2023-02-28T15:26:50;2.28;;;2.10;;
53391;SDS011;41667;51.922;8.850;2023-02-28T15:29:17;2.47;;;2.08;;
53391;SDS011;41667;51.922;8.850;2023-02-28T15:31:45;2.45;;;2.08;;
53391;SDS011;41667;51.922;8.850;2023-02-28T15:34:20;3.75;;;2.47;;
53391;SDS011;41667;51.922;8.850;2023-02-28T15:36:46;2.17;;;1.98;;
53391;SDS011;41667;51.922;8.850;2023-02-28T15:39:18;3.17;;;2.05;;
53391;SDS011;41667;51.922;8.850;2023-02-28T15:46:45;1.77;;;1.67;;
53391;SDS011;41667;51.922;8.850;2023-02-28T15:49:19;2.15;;;1.67;;
53391;SDS011;41667;51.922;8.850;2023-02-28T15:51:45;2.08;;;1.83;;
53391;SDS011;41667;51.922;8.850;2023-02-28T15:54:12;3.05;;;1.80;;
53391;SDS011;41667;51.922;8.850;2023-02-28T15:56:43;2.40;;;2.20;;
53391;SDS011;41667;51.922;8.850;2023-02-28T15:59:14;2.25;;;1.80;;
53391;SDS011;41667;51.922;8.850;2023-02-28T16:01:40;2.28;;;2.08;;
53391;SDS011;41667;51.922;8.850;2023-02-28T16:04:06;1.98;;;1.83;;
53391;SDS011;41667;51.922;8.850;2023-02-28T16:06:39;2.00;;;1.60;;
53391;SDS011;41667;51.922;8.850;2023-02-28T16:09:08;4.15;;;1.38;;
53391;SDS011;41667;51.922;8.850;2023-02-28T16:11:35;1.70;;;1.55;;
53391;SDS011;41667;51.922;8.850;2023-02-28T16:14:02;2.17;;;1.98;;
53391;SDS011;41667;51.922;8.850;2023-02-28T16:16:28;5.20;;;2.00;;
53391;SDS011;41667;51.922;8.850;2023-02-28T16:18:53;1.90;;;1.80;;
53391;SDS011;41667;51.922;8.850;2023-02-28T16:21:18;2.90;;;2.28;;
53391;SDS011;41667;51.922;8.850;2023-02-28T16:23:43;4.32;;;2.50;;
53391;SDS011;41667;51.922;8.850;2023-02-28T16:26:10;2.92;;;2.22;;
53391;SDS011;41667;51.922;8.850;2023-02-28T16:28:39;2.83;;;2.13;;
53391;SDS011;41667;51.922;8.850;2023-02-28T16:31:05;2.80;;;1.88;;
53391;SDS011;41667;51.922;8.850;2023-02-28T16:33:31;3.30;;;2.35;;
53391;SDS011;41667;51.922;8.850;2023-02-28T16:35:56;1.77;;;1.67;;
53391;SDS011;41667;51.922;8.850;2023-02-28T16:38:22;2.25;;;2.10;;
53391;SDS011;41667;51.922;8.850;2023-02-28T16:40:49;2.00;;;1.90;;
53391;SDS011;41667;51.922;8.850;2023-02-28T16:43:16;3.35;;;2.13;;